sensor_id;sensor_type;location;lat;lon;timestamp;temperature;humidity
13198;DHT22;6664;52.514;13.440;2023-07-22T00:00:03;13.00;99.90
13198;DHT22;6664;52.514;13.440;2023-07-22T00:02:51;13.00;99.90
13198;DHT22;6664;52.514;13.440;2023-07-22T00:05:37;13.10;99.90
13198;DHT22;6664;52.514;13.440;2023-07-22T00:08:23;13.10;99.90
13198;DHT22;6664;52.514;13.440;2023-07-22T00:11:08;13.20;99.90
13198;DHT22;6664;52.514;13.440;2023-07-22T00:13:54;13.10;99.90
13198;DHT22;6664;52.514;13.440;2023-07-22T00:16:40;13.10;99.90
13198;DHT22;6664;52.514;13.440;2023-07-22T00:19:28;13.20;99.90
13198;DHT22;6664;52.514;13.440;2023-07-22T00:22:16;13.20;99.90
13198;DHT22;6664;52.514;13.440;2023-07-22T00:25:02;13.30;99.90
13198;DHT22;6664;52.514;13.440;2023-07-22T00:27:48;13.40;99.90
13198;DHT22;6664;52.514;13.440;2023-07-22T00:30:33;13.40;99.90
13198;DHT22;6664;52.514;13.440;2023-07-22T00:33:22;13.40;99.90
13198;DHT22;6664;52.514;13.440;2023-07-22T00:36:08;13.50;99.90
13198;DHT22;6664;52.514;13.440;2023-07-22T00:38:54;13.50;99.90
13198;DHT22;6664;52.514;13.440;2023-07-22T00:41:42;13.50;99.90
13198;DHT22;6664;52.514;13.440;2023-07-22T00:44:30;13.60;99.90
13198;DHT22;6664;52.514;13.440;2023-07-22T00:47:16;13.60;99.90
13198;DHT22;6664;52.514;13.440;2023-07-22T00:50:03;13.60;99.90
13198;DHT22;6664;52.514;13.440;2023-07-22T00:52:49;13.60;99.90
13198;DHT22;6664;52.514;13.440;2023-07-22T00:55:35;13.70;99.90
13198;DHT22;6664;52.514;13.440;2023-07-22T00:58:22;13.70;99.90
13198;DHT22;6664;52.514;13.440;2023-07-22T01:01:07;13.70;99.90
13198;DHT22;6664;52.514;13.440;2023-07-22T01:03:53;13.80;99.90
13198;DHT22;6664;52.514;13.440;2023-07-22T01:06:42;13.80;99.90
13198;DHT22;6664;52.514;13.440;2023-07-22T01:09:34;13.80;99.90
13198;DHT22;6664;52.514;13.440;2023-07-22T01:12:20;13.80;99.90
13198;DHT22;6664;52.514;13.440;2023-07-22T01:15:07;13.90;99.90
13198;DHT22;6664;52.514;13.440;2023-07-22T01:17:56;13.90;99.90
13198;DHT22;6664;52.514;13.440;2023-07-22T01:20:47;13.90;99.90
13198;DHT22;6664;52.514;13.440;2023-07-22T01:23:32;14.00;99.90
13198;DHT22;6664;52.514;13.440;2023-07-22T01:26:19;14.00;99.90
13198;DHT22;6664;52.514;13.440;2023-07-22T01:29:05;14.00;99.90
13198;DHT22;6664;52.514;13.440;2023-07-22T01:31:53;14.00;99.90
13198;DHT22;6664;52.514;13.440;2023-07-22T01:34:39;14.00;99.90
13198;DHT22;6664;52.514;13.440;2023-07-22T01:37:25;14.00;99.90
13198;DHT22;6664;52.514;13.440;2023-07-22T01:40:11;14.00;99.90
13198;DHT22;6664;52.514;13.440;2023-07-22T01:42:59;14.10;99.90
13198;DHT22;6664;52.514;13.440;2023-07-22T01:45:45;14.10;99.90
13198;DHT22;6664;52.514;13.440;2023-07-22T01:48:30;14.10;99.90
13198;DHT22;6664;52.514;13.440;2023-07-22T01:51:18;14.10;99.90
13198;DHT22;6664;52.514;13.440;2023-07-22T01:54:04;14.10;99.90
13198;DHT22;6664;52.514;13.440;2023-07-22T01:56:50;14.10;99.90
13198;DHT22;6664;52.514;13.440;2023-07-22T01:59:36;14.10;99.90
13198;DHT22;6664;52.514;13.440;2023-07-22T02:02:21;14.00;99.90
13198;DHT22;6664;52.514;13.440;2023-07-22T02:05:08;13.90;99.90
13198;DHT22;6664;52.514;13.440;2023-07-22T02:07:58;13.90;99.90
13198;DHT22;6664;52.514;13.440;2023-07-22T02:10:44;13.80;99.90
13198;DHT22;6664;52.514;13.440;2023-07-22T02:13:30;13.70;99.90
13198;DHT22;6664;52.514;13.440;2023-07-22T02:16:18;13.80;99.90
13198;DHT22;6664;52.514;13.440;2023-07-22T02:19:04;13.70;99.90
13198;DHT22;6664;52.514;13.440;2023-07-22T02:21:50;13.70;99.90
13198;DHT22;6664;52.514;13.440;2023-07-22T02:24:35;13.60;99.90
13198;DHT22;6664;52.514;13.440;2023-07-22T02:27:21;13.60;99.90
13198;DHT22;6664;52.514;13.440;2023-07-22T02:30:07;13.70;99.90
13198;DHT22;6664;52.514;13.440;2023-07-22T02:32:58;13.60;99.90
13198;DHT22;6664;52.514;13.440;2023-07-22T02:35:44;13.50;99.90
13198;DHT22;6664;52.514;13.440;2023-07-22T02:38:30;13.40;99.90
13198;DHT22;6664;52.514;13.440;2023-07-22T02:41:15;13.30;99.90
13198;DHT22;6664;52.514;13.440;2023-07-22T02:44:04;13.30;99.90
13198;DHT22;6664;52.514;13.440;2023-07-22T02:46:49;13.20;99.90
13198;DHT22;6664;52.514;13.440;2023-07-22T02:49:35;13.20;99.90
13198;DHT22;6664;52.514;13.440;2023-07-22T02:52:21;13.10;99.90
13198;DHT22;6664;52.514;13.440;2023-07-22T02:55:12;13.20;99.90
13198;DHT22;6664;52.514;13.440;2023-07-22T02:57:58;13.20;99.90
13198;DHT22;6664;52.514;13.440;2023-07-22T03:00:43;13.30;99.90
13198;DHT22;6664;52.514;13.440;2023-07-22T03:03:28;13.20;99.90
13198;DHT22;6664;52.514;13.440;2023-07-22T03:06:14;13.20;99.90
13198;DHT22;6664;52.514;13.440;2023-07-22T03:08:59;13.20;99.90
13198;DHT22;6664;52.514;13.440;2023-07-22T03:11:45;13.10;99.90
13198;DHT22;6664;52.514;13.440;2023-07-22T03:14:30;13.10;99.90
13198;DHT22;6664;52.514;13.440;2023-07-22T03:17:23;13.10;99.90
13198;DHT22;6664;52.514;13.440;2023-07-22T03:20:09;13.10;99.90
13198;DHT22;6664;52.514;13.440;2023-07-22T03:23:06;13.10;99.90
13198;DHT22;6664;52.514;13.440;2023-07-22T03:25:51;13.10;99.90
13198;DHT22;6664;52.514;13.440;2023-07-22T03:28:36;13.10;99.90
13198;DHT22;6664;52.514;13.440;2023-07-22T03:31:22;13.10;99.90
13198;DHT22;6664;52.514;13.440;2023-07-22T03:34:08;13.00;99.90
13198;DHT22;6664;52.514;13.440;2023-07-22T03:36:54;13.10;99.90
13198;DHT22;6664;52.514;13.440;2023-07-22T03:39:40;13.00;99.90
13198;DHT22;6664;52.514;13.440;2023-07-22T03:42:25;13.00;99.90
13198;DHT22;6664;52.514;13.440;2023-07-22T03:45:11;13.10;99.90
13198;DHT22;6664;52.514;13.440;2023-07-22T03:47:58;13.10;99.90
13198;DHT22;6664;52.514;13.440;2023-07-22T03:50:46;13.10;99.90
13198;DHT22;6664;52.514;13.440;2023-07-22T03:53:32;13.10;99.90
13198;DHT22;6664;52.514;13.440;2023-07-22T03:56:17;13.10;99.90
13198;DHT22;6664;52.514;13.440;2023-07-22T03:59:03;13.10;99.90
13198;DHT22;6664;52.514;13.440;2023-07-22T04:01:49;13.10;99.90
13198;DHT22;6664;52.514;13.440;2023-07-22T04:04:34;13.20;99.90
13198;DHT22;6664;52.514;13.440;2023-07-22T04:07:22;13.20;99.90
13198;DHT22;6664;52.514;13.440;2023-07-22T04:10:08;13.10;99.90
13198;DHT22;6664;52.514;13.440;2023-07-22T04:12:54;13.20;99.90
13198;DHT22;6664;52.514;13.440;2023-07-22T04:15:39;13.20;99.90
13198;DHT22;6664;52.514;13.440;2023-07-22T04:18:25;13.20;99.90
13198;DHT22;6664;52.514;13.440;2023-07-22T04:21:11;13.20;99.90
13198;DHT22;6664;52.514;13.440;2023-07-22T04:23:56;13.30;99.90
13198;DHT22;6664;52.514;13.440;2023-07-22T04:26:43;13.30;99.90
13198;DHT22;6664;52.514;13.440;2023-07-22T04:29:29;13.30;99.90
13198;DHT22;6664;52.514;13.440;2023-07-22T04:32:16;13.30;99.90
13198;DHT22;6664;52.514;13.440;2023-07-22T04:35:05;13.40;99.90
13198;DHT22;6664;52.514;13.440;2023-07-22T04:37:51;13.40;99.90
13198;DHT22;6664;52.514;13.440;2023-07-22T04:40:37;13.40;99.90
13198;DHT22;6664;52.514;13.440;2023-07-22T04:43:22;13.40;99.90
13198;DHT22;6664;52.514;13.440;2023-07-22T04:46:08;13.40;99.90
13198;DHT22;6664;52.514;13.440;2023-07-22T04:48:56;13.40;99.90
13198;DHT22;6664;52.514;13.440;2023-07-22T04:51:46;13.50;99.90
13198;DHT22;6664;52.514;13.440;2023-07-22T04:54:32;13.50;99.90
13198;DHT22;6664;52.514;13.440;2023-07-22T04:57:17;13.60;99.90
13198;DHT22;6664;52.514;13.440;2023-07-22T05:00:06;13.60;99.90
13198;DHT22;6664;52.514;13.440;2023-07-22T05:02:54;13.60;99.90
13198;DHT22;6664;52.514;13.440;2023-07-22T05:05:42;13.70;99.90
13198;DHT22;6664;52.514;13.440;2023-07-22T05:08:29;13.60;99.90
13198;DHT22;6664;52.514;13.440;2023-07-22T05:11:15;13.70;99.90
13198;DHT22;6664;52.514;13.440;2023-07-22T05:14:02;13.70;99.90
13198;DHT22;6664;52.514;13.440;2023-07-22T05:16:50;13.80;99.90
13198;DHT22;6664;52.514;13.440;2023-07-22T05:19:36;13.80;99.90
13198;DHT22;6664;52.514;13.440;2023-07-22T05:22:23;13.90;99.90
13198;DHT22;6664;52.514;13.440;2023-07-22T05:25:08;13.90;99.90
13198;DHT22;6664;52.514;13.440;2023-07-22T05:27:54;14.00;99.90
13198;DHT22;6664;52.514;13.440;2023-07-22T05:30:40;14.00;99.90
13198;DHT22;6664;52.514;13.440;2023-07-22T05:33:26;14.10;99.90
13198;DHT22;6664;52.514;13.440;2023-07-22T05:36:11;14.20;99.90
13198;DHT22;6664;52.514;13.440;2023-07-22T05:38:57;14.30;99.90
13198;DHT22;6664;52.514;13.440;2023-07-22T05:41:43;14.70;99.90
13198;DHT22;6664;52.514;13.440;2023-07-22T05:44:29;14.70;99.90
13198;DHT22;6664;52.514;13.440;2023-07-22T05:47:14;14.90;99.90
13198;DHT22;6664;52.514;13.440;2023-07-22T05:50:03;14.80;99.90
13198;DHT22;6664;52.514;13.440;2023-07-22T05:52:51;14.80;99.90
13198;DHT22;6664;52.514;13.440;2023-07-22T05:55:39;14.90;99.90
13198;DHT22;6664;52.514;13.440;2023-07-22T05:58:24;15.00;99.90
13198;DHT22;6664;52.514;13.440;2023-07-22T06:01:12;15.20;99.90
13198;DHT22;6664;52.514;13.440;2023-07-22T06:04:00;15.20;99.90
13198;DHT22;6664;52.514;13.440;2023-07-22T06:06:46;15.30;99.90
13198;DHT22;6664;52.514;13.440;2023-07-22T06:09:32;15.00;99.90
13198;DHT22;6664;52.514;13.440;2023-07-22T06:12:17;14.80;99.90
13198;DHT22;6664;52.514;13.440;2023-07-22T06:15:06;14.80;99.90
13198;DHT22;6664;52.514;13.440;2023-07-22T06:17:52;14.70;99.90
13198;DHT22;6664;52.514;13.440;2023-07-22T06:20:38;14.70;99.90
13198;DHT22;6664;52.514;13.440;2023-07-22T06:23:25;14.70;99.90
13198;DHT22;6664;52.514;13.440;2023-07-22T06:26:11;14.60;99.90
13198;DHT22;6664;52.514;13.440;2023-07-22T06:28:59;14.70;99.90
13198;DHT22;6664;52.514;13.440;2023-07-22T06:31:44;14.80;99.90
13198;DHT22;6664;52.514;13.440;2023-07-22T06:34:30;15.00;99.90
13198;DHT22;6664;52.514;13.440;2023-07-22T06:37:15;15.00;99.90
13198;DHT22;6664;52.514;13.440;2023-07-22T06:40:01;15.10;99.90
13198;DHT22;6664;52.514;13.440;2023-07-22T06:42:47;15.10;99.90
13198;DHT22;6664;52.514;13.440;2023-07-22T06:45:33;15.10;99.90
13198;DHT22;6664;52.514;13.440;2023-07-22T06:48:18;15.20;99.90
13198;DHT22;6664;52.514;13.440;2023-07-22T06:51:03;15.20;99.90
13198;DHT22;6664;52.514;13.440;2023-07-22T06:53:49;15.30;99.90
13198;DHT22;6664;52.514;13.440;2023-07-22T06:56:35;15.30;99.90
13198;DHT22;6664;52.514;13.440;2023-07-22T06:59:20;15.60;99.90
13198;DHT22;6664;52.514;13.440;2023-07-22T07:02:08;15.60;99.90
13198;DHT22;6664;52.514;13.440;2023-07-22T07:04:58;15.80;99.90
13198;DHT22;6664;52.514;13.440;2023-07-22T07:07:44;16.00;99.90
13198;DHT22;6664;52.514;13.440;2023-07-22T07:10:29;16.00;99.90
13198;DHT22;6664;52.514;13.440;2023-07-22T07:13:15;16.10;99.90
13198;DHT22;6664;52.514;13.440;2023-07-22T07:16:21;16.40;99.90
13198;DHT22;6664;52.514;13.440;2023-07-22T07:19:08;16.50;99.90
13198;DHT22;6664;52.514;13.440;2023-07-22T07:21:54;16.50;99.90
13198;DHT22;6664;52.514;13.440;2023-07-22T07:24:40;16.60;99.90
13198;DHT22;6664;52.514;13.440;2023-07-22T07:27:25;16.50;99.90
13198;DHT22;6664;52.514;13.440;2023-07-22T07:30:11;16.50;99.90
13198;DHT22;6664;52.514;13.440;2023-07-22T07:32:57;16.70;99.90
13198;DHT22;6664;52.514;13.440;2023-07-22T07:35:46;16.80;99.90
13198;DHT22;6664;52.514;13.440;2023-07-22T07:38:32;16.80;99.90
13198;DHT22;6664;52.514;13.440;2023-07-22T07:41:18;16.90;99.90
13198;DHT22;6664;52.514;13.440;2023-07-22T07:44:04;17.10;74.20
13198;DHT22;6664;52.514;13.440;2023-07-22T07:46:49;17.30;54.30
13198;DHT22;6664;52.514;13.440;2023-07-22T07:49:37;17.10;50.20
13198;DHT22;6664;52.514;13.440;2023-07-22T07:52:25;17.20;46.30
13198;DHT22;6664;52.514;13.440;2023-07-22T07:55:11;17.20;40.00
13198;DHT22;6664;52.514;13.440;2023-07-22T07:57:59;17.10;44.30
13198;DHT22;6664;52.514;13.440;2023-07-22T08:00:44;17.60;37.70
13198;DHT22;6664;52.514;13.440;2023-07-22T08:03:30;17.50;37.30
13198;DHT22;6664;52.514;13.440;2023-07-22T08:06:16;17.60;33.60
13198;DHT22;6664;52.514;13.440;2023-07-22T08:09:04;17.60;36.90
13198;DHT22;6664;52.514;13.440;2023-07-22T08:11:54;17.60;33.60
13198;DHT22;6664;52.514;13.440;2023-07-22T08:14:39;17.40;30.50
13198;DHT22;6664;52.514;13.440;2023-07-22T08:17:25;17.50;29.20
13198;DHT22;6664;52.514;13.440;2023-07-22T08:20:11;17.50;29.20
13198;DHT22;6664;52.514;13.440;2023-07-22T08:22:56;17.60;29.50
13198;DHT22;6664;52.514;13.440;2023-07-22T08:25:44;17.80;26.70
13198;DHT22;6664;52.514;13.440;2023-07-22T08:28:30;17.70;25.20
13198;DHT22;6664;52.514;13.440;2023-07-22T08:31:15;17.90;24.60
13198;DHT22;6664;52.514;13.440;2023-07-22T08:34:01;18.30;24.00
13198;DHT22;6664;52.514;13.440;2023-07-22T08:36:46;18.30;21.80
13198;DHT22;6664;52.514;13.440;2023-07-22T08:39:32;18.10;23.00
13198;DHT22;6664;52.514;13.440;2023-07-22T08:42:21;18.20;21.80
13198;DHT22;6664;52.514;13.440;2023-07-22T08:45:13;18.20;22.90
13198;DHT22;6664;52.514;13.440;2023-07-22T08:47:59;18.40;22.00
13198;DHT22;6664;52.514;13.440;2023-07-22T08:51:04;18.40;21.50
13198;DHT22;6664;52.514;13.440;2023-07-22T08:53:56;18.60;20.80
13198;DHT22;6664;52.514;13.440;2023-07-22T08:56:56;18.80;20.70
13198;DHT22;6664;52.514;13.440;2023-07-22T08:59:42;18.40;20.60
13198;DHT22;6664;52.514;13.440;2023-07-22T09:02:29;18.70;19.90
13198;DHT22;6664;52.514;13.440;2023-07-22T09:05:17;18.60;19.90
13198;DHT22;6664;52.514;13.440;2023-07-22T09:08:04;18.40;19.70
13198;DHT22;6664;52.514;13.440;2023-07-22T09:10:51;18.70;19.00
13198;DHT22;6664;52.514;13.440;2023-07-22T09:13:38;18.30;19.90
13198;DHT22;6664;52.514;13.440;2023-07-22T09:16:27;18.50;19.70
13198;DHT22;6664;52.514;13.440;2023-07-22T09:19:16;19.00;17.40
13198;DHT22;6664;52.514;13.440;2023-07-22T09:22:02;19.10;16.80
13198;DHT22;6664;52.514;13.440;2023-07-22T09:24:48;19.50;16.20
13198;DHT22;6664;52.514;13.440;2023-07-22T09:27:34;19.20;15.70
13198;DHT22;6664;52.514;13.440;2023-07-22T09:30:32;19.20;14.80
13198;DHT22;6664;52.514;13.440;2023-07-22T09:33:22;19.40;15.00
13198;DHT22;6664;52.514;13.440;2023-07-22T09:36:10;19.10;15.30
13198;DHT22;6664;52.514;13.440;2023-07-22T09:39:00;19.00;15.30
13198;DHT22;6664;52.514;13.440;2023-07-22T09:41:48;19.10;15.20
13198;DHT22;6664;52.514;13.440;2023-07-22T09:44:37;19.50;15.00
13198;DHT22;6664;52.514;13.440;2023-07-22T09:47:23;19.80;15.20
13198;DHT22;6664;52.514;13.440;2023-07-22T09:50:22;19.80;15.10
13198;DHT22;6664;52.514;13.440;2023-07-22T09:53:08;19.60;14.60
13198;DHT22;6664;52.514;13.440;2023-07-22T09:55:54;19.80;13.90
13198;DHT22;6664;52.514;13.440;2023-07-22T09:58:40;19.80;13.10
13198;DHT22;6664;52.514;13.440;2023-07-22T10:01:26;19.50;14.10
13198;DHT22;6664;52.514;13.440;2023-07-22T10:04:16;19.80;11.80
13198;DHT22;6664;52.514;13.440;2023-07-22T10:07:03;20.40;11.80
13198;DHT22;6664;52.514;13.440;2023-07-22T10:09:49;20.40;10.40
13198;DHT22;6664;52.514;13.440;2023-07-22T10:12:36;20.60;9.80
13198;DHT22;6664;52.514;13.440;2023-07-22T10:15:21;20.50;9.60
13198;DHT22;6664;52.514;13.440;2023-07-22T10:18:09;20.40;9.80
13198;DHT22;6664;52.514;13.440;2023-07-22T10:20:56;20.70;10.30
13198;DHT22;6664;52.514;13.440;2023-07-22T10:23:43;20.70;9.50
13198;DHT22;6664;52.514;13.440;2023-07-22T10:26:31;21.20;8.60
13198;DHT22;6664;52.514;13.440;2023-07-22T10:29:36;20.60;8.00
13198;DHT22;6664;52.514;13.440;2023-07-22T10:32:21;20.60;8.20
13198;DHT22;6664;52.514;13.440;2023-07-22T10:38:17;21.30;7.30
13198;DHT22;6664;52.514;13.440;2023-07-22T10:41:12;21.00;6.60
13198;DHT22;6664;52.514;13.440;2023-07-22T10:43:59;21.00;6.30
13198;DHT22;6664;52.514;13.440;2023-07-22T10:46:56;21.10;6.70
13198;DHT22;6664;52.514;13.440;2023-07-22T10:49:47;20.90;6.60
13198;DHT22;6664;52.514;13.440;2023-07-22T10:52:43;20.50;7.10
13198;DHT22;6664;52.514;13.440;2023-07-22T10:55:28;20.80;7.10
13198;DHT22;6664;52.514;13.440;2023-07-22T10:58:20;21.30;5.70
13198;DHT22;6664;52.514;13.440;2023-07-22T11:04:28;20.50;6.30
13198;DHT22;6664;52.514;13.440;2023-07-22T11:07:43;20.30;6.10
13198;DHT22;6664;52.514;13.440;2023-07-22T11:10:30;20.20;6.30
13198;DHT22;6664;52.514;13.440;2023-07-22T11:13:15;20.30;4.90
13198;DHT22;6664;52.514;13.440;2023-07-22T11:16:01;20.80;4.60
13198;DHT22;6664;52.514;13.440;2023-07-22T11:18:47;20.60;4.90
13198;DHT22;6664;52.514;13.440;2023-07-22T11:21:32;20.70;5.30
13198;DHT22;6664;52.514;13.440;2023-07-22T11:24:19;20.70;5.40
13198;DHT22;6664;52.514;13.440;2023-07-22T11:27:08;21.40;5.00
13198;DHT22;6664;52.514;13.440;2023-07-22T11:29:58;21.50;3.40
13198;DHT22;6664;52.514;13.440;2023-07-22T11:32:46;21.30;2.40
13198;DHT22;6664;52.514;13.440;2023-07-22T11:35:35;21.50;3.70
13198;DHT22;6664;52.514;13.440;2023-07-22T11:38:21;22.10;2.60
13198;DHT22;6664;52.514;13.440;2023-07-22T11:41:08;22.20;2.60
13198;DHT22;6664;52.514;13.440;2023-07-22T11:43:57;21.90;3.30
13198;DHT22;6664;52.514;13.440;2023-07-22T11:46:55;21.90;3.00
13198;DHT22;6664;52.514;13.440;2023-07-22T11:49:41;22.10;2.00
13198;DHT22;6664;52.514;13.440;2023-07-22T11:52:31;22.40;1.00
13198;DHT22;6664;52.514;13.440;2023-07-22T11:55:23;22.50;1.00
13198;DHT22;6664;52.514;13.440;2023-07-22T11:58:28;22.80;1.00
13198;DHT22;6664;52.514;13.440;2023-07-22T12:01:16;23.10;1.00
13198;DHT22;6664;52.514;13.440;2023-07-22T12:04:11;23.00;1.00
13198;DHT22;6664;52.514;13.440;2023-07-22T12:06:56;23.00;1.00
13198;DHT22;6664;52.514;13.440;2023-07-22T12:09:48;23.20;1.00
13198;DHT22;6664;52.514;13.440;2023-07-22T12:12:41;23.10;1.00
13198;DHT22;6664;52.514;13.440;2023-07-22T12:15:27;23.30;1.00
13198;DHT22;6664;52.514;13.440;2023-07-22T12:18:13;23.00;1.00
13198;DHT22;6664;52.514;13.440;2023-07-22T12:20:59;22.90;1.00
13198;DHT22;6664;52.514;13.440;2023-07-22T12:23:45;24.30;1.00
13198;DHT22;6664;52.514;13.440;2023-07-22T12:26:31;23.90;1.00
13198;DHT22;6664;52.514;13.440;2023-07-22T12:29:17;24.10;1.00
13198;DHT22;6664;52.514;13.440;2023-07-22T12:32:07;24.20;1.00
13198;DHT22;6664;52.514;13.440;2023-07-22T12:34:53;25.10;1.00
13198;DHT22;6664;52.514;13.440;2023-07-22T12:37:39;26.60;1.00
13198;DHT22;6664;52.514;13.440;2023-07-22T12:40:26;27.60;1.00
13198;DHT22;6664;52.514;13.440;2023-07-22T12:43:12;29.70;1.00
13198;DHT22;6664;52.514;13.440;2023-07-22T12:45:58;28.30;1.00
13198;DHT22;6664;52.514;13.440;2023-07-22T12:48:43;26.80;1.00
13198;DHT22;6664;52.514;13.440;2023-07-22T12:51:31;25.80;1.00
13198;DHT22;6664;52.514;13.440;2023-07-22T12:54:17;25.20;1.00
13198;DHT22;6664;52.514;13.440;2023-07-22T12:57:05;26.70;1.00
13198;DHT22;6664;52.514;13.440;2023-07-22T12:59:50;30.80;1.00
13198;DHT22;6664;52.514;13.440;2023-07-22T13:02:37;29.20;1.00
13198;DHT22;6664;52.514;13.440;2023-07-22T13:05:23;31.30;1.00
13198;DHT22;6664;52.514;13.440;2023-07-22T13:08:08;33.50;1.00
13198;DHT22;6664;52.514;13.440;2023-07-22T13:10:54;28.70;1.00
13198;DHT22;6664;52.514;13.440;2023-07-22T13:13:40;26.70;1.00
13198;DHT22;6664;52.514;13.440;2023-07-22T13:16:25;26.90;1.00
13198;DHT22;6664;52.514;13.440;2023-07-22T13:19:11;29.40;1.00
13198;DHT22;6664;52.514;13.440;2023-07-22T13:21:56;33.70;1.00
13198;DHT22;6664;52.514;13.440;2023-07-22T13:24:42;30.60;1.00
13198;DHT22;6664;52.514;13.440;2023-07-22T13:27:27;32.10;1.00
13198;DHT22;6664;52.514;13.440;2023-07-22T13:30:17;30.80;1.00
13198;DHT22;6664;52.514;13.440;2023-07-22T13:33:02;27.80;1.00
13198;DHT22;6664;52.514;13.440;2023-07-22T13:35:48;29.20;1.00
13198;DHT22;6664;52.514;13.440;2023-07-22T13:38:35;31.70;1.00
13198;DHT22;6664;52.514;13.440;2023-07-22T13:41:26;34.90;1.00
13198;DHT22;6664;52.514;13.440;2023-07-22T13:44:14;36.10;1.00
13198;DHT22;6664;52.514;13.440;2023-07-22T13:47:00;36.80;1.00
13198;DHT22;6664;52.514;13.440;2023-07-22T13:49:48;36.50;1.00
13198;DHT22;6664;52.514;13.440;2023-07-22T13:52:34;35.90;1.00
13198;DHT22;6664;52.514;13.440;2023-07-22T13:55:22;38.70;1.00
13198;DHT22;6664;52.514;13.440;2023-07-22T13:58:07;37.90;1.00
13198;DHT22;6664;52.514;13.440;2023-07-22T14:00:56;38.40;1.00
13198;DHT22;6664;52.514;13.440;2023-07-22T14:03:43;35.20;1.00
13198;DHT22;6664;52.514;13.440;2023-07-22T14:06:28;31.60;1.00
13198;DHT22;6664;52.514;13.440;2023-07-22T14:09:17;28.30;1.00
13198;DHT22;6664;52.514;13.440;2023-07-22T14:12:03;29.30;1.00
13198;DHT22;6664;52.514;13.440;2023-07-22T14:14:48;30.60;1.00
13198;DHT22;6664;52.514;13.440;2023-07-22T14:17:34;28.40;1.00
13198;DHT22;6664;52.514;13.440;2023-07-22T14:20:23;26.80;1.00
13198;DHT22;6664;52.514;13.440;2023-07-22T14:23:08;26.10;1.00
13198;DHT22;6664;52.514;13.440;2023-07-22T14:25:54;26.20;1.00
13198;DHT22;6664;52.514;13.440;2023-07-22T14:28:40;28.20;1.00
13198;DHT22;6664;52.514;13.440;2023-07-22T14:31:30;27.70;1.00
13198;DHT22;6664;52.514;13.440;2023-07-22T14:34:16;26.20;1.00
13198;DHT22;6664;52.514;13.440;2023-07-22T14:37:03;25.70;1.00
13198;DHT22;6664;52.514;13.440;2023-07-22T14:39:50;25.30;1.00
13198;DHT22;6664;52.514;13.440;2023-07-22T14:42:35;25.80;1.00
13198;DHT22;6664;52.514;13.440;2023-07-22T14:45:21;26.10;1.00
13198;DHT22;6664;52.514;13.440;2023-07-22T14:48:07;25.90;1.00
13198;DHT22;6664;52.514;13.440;2023-07-22T14:50:52;25.40;1.00
13198;DHT22;6664;52.514;13.440;2023-07-22T14:53:38;25.80;1.00
13198;DHT22;6664;52.514;13.440;2023-07-22T14:56:23;25.70;1.00
13198;DHT22;6664;52.514;13.440;2023-07-22T14:59:13;25.10;1.00
13198;DHT22;6664;52.514;13.440;2023-07-22T15:01:59;24.10;1.00
13198;DHT22;6664;52.514;13.440;2023-07-22T15:04:48;23.40;1.00
13198;DHT22;6664;52.514;13.440;2023-07-22T15:07:35;23.00;1.00
13198;DHT22;6664;52.514;13.440;2023-07-22T15:10:23;22.80;1.00
13198;DHT22;6664;52.514;13.440;2023-07-22T15:13:11;22.80;1.00
13198;DHT22;6664;52.514;13.440;2023-07-22T15:15:56;23.00;1.00
13198;DHT22;6664;52.514;13.440;2023-07-22T15:18:42;23.30;1.00
13198;DHT22;6664;52.514;13.440;2023-07-22T15:21:29;22.60;1.00
13198;DHT22;6664;52.514;13.440;2023-07-22T15:24:15;22.60;1.00
13198;DHT22;6664;52.514;13.440;2023-07-22T15:27:00;22.20;1.00
13198;DHT22;6664;52.514;13.440;2023-07-22T15:29:49;22.00;1.00
13198;DHT22;6664;52.514;13.440;2023-07-22T15:32:35;22.00;1.00
13198;DHT22;6664;52.514;13.440;2023-07-22T15:35:20;22.00;1.00
13198;DHT22;6664;52.514;13.440;2023-07-22T15:38:09;22.00;1.00
13198;DHT22;6664;52.514;13.440;2023-07-22T15:40:56;22.10;1.00
13198;DHT22;6664;52.514;13.440;2023-07-22T15:43:42;21.90;1.00
13198;DHT22;6664;52.514;13.440;2023-07-22T15:46:27;22.20;1.00
13198;DHT22;6664;52.514;13.440;2023-07-22T15:49:13;22.40;1.00
13198;DHT22;6664;52.514;13.440;2023-07-22T15:51:59;24.60;1.00
13198;DHT22;6664;52.514;13.440;2023-07-22T15:54:46;24.90;1.00
13198;DHT22;6664;52.514;13.440;2023-07-22T15:57:32;24.60;1.00
13198;DHT22;6664;52.514;13.440;2023-07-22T16:00:17;25.70;1.00
13198;DHT22;6664;52.514;13.440;2023-07-22T16:03:06;25.50;1.00
13198;DHT22;6664;52.514;13.440;2023-07-22T16:05:52;25.00;1.00
13198;DHT22;6664;52.514;13.440;2023-07-22T16:08:41;24.20;1.00
13198;DHT22;6664;52.514;13.440;2023-07-22T16:11:27;23.60;1.00
13198;DHT22;6664;52.514;13.440;2023-07-22T16:14:18;23.60;1.00
13198;DHT22;6664;52.514;13.440;2023-07-22T16:17:03;23.70;1.00
13198;DHT22;6664;52.514;13.440;2023-07-22T16:19:49;24.00;1.00
13198;DHT22;6664;52.514;13.440;2023-07-22T16:22:35;24.10;1.00
13198;DHT22;6664;52.514;13.440;2023-07-22T16:25:26;24.30;1.00
13198;DHT22;6664;52.514;13.440;2023-07-22T16:28:12;24.20;1.00
13198;DHT22;6664;52.514;13.440;2023-07-22T16:30:57;24.10;1.00
13198;DHT22;6664;52.514;13.440;2023-07-22T16:33:43;24.20;1.00
13198;DHT22;6664;52.514;13.440;2023-07-22T16:36:32;24.30;1.00
13198;DHT22;6664;52.514;13.440;2023-07-22T16:39:18;24.10;1.00
13198;DHT22;6664;52.514;13.440;2023-07-22T16:42:05;23.70;1.00
13198;DHT22;6664;52.514;13.440;2023-07-22T16:44:51;23.10;1.00
13198;DHT22;6664;52.514;13.440;2023-07-22T16:47:37;23.20;1.00
13198;DHT22;6664;52.514;13.440;2023-07-22T16:50:23;23.20;1.00
13198;DHT22;6664;52.514;13.440;2023-07-22T16:53:12;22.70;1.00
13198;DHT22;6664;52.514;13.440;2023-07-22T16:55:57;22.40;1.00
13198;DHT22;6664;52.514;13.440;2023-07-22T16:58:43;22.40;1.00
13198;DHT22;6664;52.514;13.440;2023-07-22T17:01:32;22.60;1.00
13198;DHT22;6664;52.514;13.440;2023-07-22T17:04:17;22.50;1.00
13198;DHT22;6664;52.514;13.440;2023-07-22T17:07:04;22.50;1.00
13198;DHT22;6664;52.514;13.440;2023-07-22T17:09:52;22.60;1.00
13198;DHT22;6664;52.514;13.440;2023-07-22T17:12:38;22.60;1.00
13198;DHT22;6664;52.514;13.440;2023-07-22T17:15:23;22.40;1.00
13198;DHT22;6664;52.514;13.440;2023-07-22T17:18:10;22.30;1.00
13198;DHT22;6664;52.514;13.440;2023-07-22T17:20:55;22.30;1.00
13198;DHT22;6664;52.514;13.440;2023-07-22T17:23:43;22.40;1.00
13198;DHT22;6664;52.514;13.440;2023-07-22T17:26:29;22.10;1.00
13198;DHT22;6664;52.514;13.440;2023-07-22T17:29:18;22.20;1.00
13198;DHT22;6664;52.514;13.440;2023-07-22T17:32:04;22.10;1.00
13198;DHT22;6664;52.514;13.440;2023-07-22T17:34:49;21.80;1.00
13198;DHT22;6664;52.514;13.440;2023-07-22T17:37:38;21.80;1.00
13198;DHT22;6664;52.514;13.440;2023-07-22T17:40:23;21.80;1.00
13198;DHT22;6664;52.514;13.440;2023-07-22T17:43:11;21.70;1.00
13198;DHT22;6664;52.514;13.440;2023-07-22T17:45:56;21.70;1.00
13198;DHT22;6664;52.514;13.440;2023-07-22T17:48:42;21.60;1.00